createdAt,value
2022-11-22T00:01:24.751Z,95353.31
2022-11-22T00:06:26.465Z,95358.75
2022-11-22T00:11:28.208Z,95366.06
2022-11-22T00:16:30.128Z,95370.09
2022-11-22T00:21:31.947Z,95367.41
2022-11-22T00:26:33.669Z,95364.69
2022-11-22T00:31:35.350Z,95356.28
2022-11-22T00:36:37.047Z,95350.63
2022-11-22T00:41:38.708Z,95341.97
2022-11-22T00:46:40.405Z,95332.78
2022-11-22T00:51:42.027Z,95339.81
2022-11-22T00:56:43.679Z,95329.22
2022-11-22T01:01:45.430Z,95338.16
2022-11-22T01:06:47.168Z,95334.63
2022-11-22T01:11:49.656Z,95327.28
2022-11-22T01:16:51.324Z,95330.00
2022-11-22T01:21:53.061Z,95325.69
2022-11-22T01:26:57.595Z,95334.03
2022-11-22T01:31:59.415Z,95339.16
2022-11-22T01:37:01.147Z,95332.13
2022-11-22T01:42:02.891Z,95334.28
2022-11-22T01:47:12.448Z,95333.72
2022-11-22T01:52:17.605Z,95325.59
2022-11-22T01:57:24.513Z,95316.69
2022-11-22T02:02:26.801Z,95312.03
2022-11-22T02:07:35.635Z,95308.78
2022-11-22T02:12:37.648Z,95288.72
2022-11-22T02:17:39.305Z,95279.53
2022-11-22T02:22:56.848Z,95281.97
2022-11-22T02:27:58.905Z,95279.25
2022-11-22T02:33:00.577Z,95290.88
2022-11-22T02:38:06.024Z,95302.81
2022-11-22T02:43:35.835Z,95309.84
2022-11-22T02:48:45.187Z,95315.25
2022-11-22T02:53:49.234Z,95326.31
2022-11-22T02:58:51.163Z,95336.94
2022-11-22T03:03:52.874Z,95343.97
2022-11-22T03:08:56.579Z,95345.28
2022-11-22T03:13:58.548Z,95332.00
2022-11-22T03:19:00.207Z,95334.72
2022-11-22T03:24:02.209Z,95330.84
2022-11-22T03:29:04.589Z,95331.38
2022-11-22T03:34:06.328Z,95326.50
2022-11-22T03:39:08.148Z,95322.13
2022-11-22T03:44:09.901Z,95330.75
2022-11-22T03:49:12.062Z,95340.50
2022-11-22T03:54:13.957Z,95355.66
2022-11-22T03:59:15.815Z,95357.31
2022-11-22T04:04:17.539Z,95360.34
2022-11-22T04:09:19.294Z,95359.56
2022-11-22T04:14:39.466Z,95351.13
2022-11-22T04:20:01.105Z,95361.09
2022-11-22T04:25:15.601Z,95369.75
2022-11-22T04:30:20.642Z,95371.84
2022-11-22T04:35:22.709Z,95386.50
2022-11-22T04:40:24.383Z,95377.25
2022-11-22T04:45:26.222Z,95369.97
2022-11-22T04:50:48.909Z,95372.97
2022-11-22T04:55:51.431Z,95370.31
2022-11-22T05:00:53.227Z,95377.88
2022-11-22T05:05:55.001Z,95382.50
2022-11-22T05:10:56.731Z,95373.03
2022-11-22T05:16:00.094Z,95379.22
2022-11-22T05:21:06.962Z,95382.22
2022-11-22T05:26:09.916Z,95380.59
2022-11-22T05:31:23.332Z,95382.22
2022-11-22T05:36:25.075Z,95397.19
2022-11-22T05:41:26.840Z,95407.19
2022-11-22T05:46:30.589Z,95414.75
2022-11-22T05:51:34.578Z,95416.91
2022-11-22T05:56:36.792Z,95412.03
2022-11-22T06:01:38.485Z,95416.41
2022-11-22T06:06:40.215Z,95417.47
2022-11-22T06:11:41.843Z,95407.19
2022-11-22T06:16:43.601Z,95400.16
2022-11-22T06:21:45.251Z,95395.59
2022-11-22T06:26:46.937Z,95412.16
2022-11-22T06:31:48.702Z,95425.16
2022-11-22T06:36:50.532Z,95434.41
2022-11-22T06:41:52.372Z,95431.66
2022-11-22T06:46:53.993Z,95442.50
2022-11-22T06:51:55.868Z,95445.75
2022-11-22T06:56:57.699Z,95453.41
2022-11-22T07:02:05.762Z,95454.50
2022-11-22T07:07:08.377Z,95466.97
2022-11-22T07:12:10.072Z,95474.00
2022-11-22T07:17:11.926Z,95476.16
2022-11-22T07:22:13.630Z,95485.91
2022-11-22T07:27:15.864Z,95491.88
2022-11-22T07:32:17.702Z,95502.69
2022-11-22T07:37:19.345Z,95509.19
2022-11-22T07:42:25.834Z,95517.81
2022-11-22T07:47:28.655Z,95525.41
2022-11-22T07:52:30.387Z,95516.13
2022-11-22T07:57:32.606Z,95518.22
2022-11-22T08:02:34.363Z,95527.41
2022-11-22T08:07:36.163Z,95528.41
2022-11-22T08:12:37.852Z,95535.13
2022-11-22T08:17:39.686Z,95546.75
2022-11-22T08:22:42.312Z,95553.25
2022-11-22T08:27:44.509Z,95559.50
2022-11-22T08:32:46.131Z,95573.84
2022-11-22T08:37:47.811Z,95576.53
2022-11-22T08:42:49.808Z,95578.63
2022-11-22T08:47:52.497Z,95581.03
2022-11-22T08:52:54.584Z,95586.69
2022-11-22T08:58:00.047Z,95595.34
2022-11-22T09:03:01.851Z,95595.63
2022-11-22T09:13:25.443Z,95602.88
2022-11-22T09:18:27.118Z,95602.84
2022-11-22T09:23:29.512Z,95603.88
2022-11-22T09:28:31.720Z,95603.88
2022-11-22T09:33:35.143Z,95614.72
2022-11-22T09:38:37.959Z,95612.50
2022-11-22T09:43:46.684Z,95620.06
2022-11-22T09:49:13.677Z,95621.28
2022-11-22T09:54:22.706Z,95628.53
2022-11-22T09:59:31.839Z,95630.56
2022-11-22T10:05:04.917Z,95637.00
2022-11-22T10:10:16.708Z,95638.00
2022-11-22T10:15:36.072Z,95640.09
2022-11-22T10:20:47.315Z,95646.59
2022-11-22T10:25:58.753Z,95649.25
2022-11-22T10:31:20.884Z,95653.50
2022-11-22T10:36:39.493Z,95645.78
2022-11-22T10:42:19.632Z,95653.31
2022-11-22T10:48:01.992Z,95647.88
2022-11-22T10:53:22.271Z,95644.56
2022-11-22T10:58:49.388Z,95644.41
2022-11-22T11:03:59.396Z,95644.84
2022-11-22T11:10:03.004Z,95638.03
2022-11-22T11:14:43.174Z,95644.50
2022-11-22T11:19:48.464Z,95633.31
2022-11-22T11:24:50.120Z,95622.84
2022-11-22T11:30:03.727Z,95616.31
2022-11-22T11:35:08.107Z,95613.19
2022-11-22T11:40:30.669Z,95604.06
2022-11-22T11:45:33.025Z,95603.47
2022-11-22T11:50:34.712Z,95604.50
2022-11-22T11:55:37.226Z,95601.72
2022-11-22T12:00:40.045Z,95597.06
2022-11-22T12:05:41.714Z,95594.06
2022-11-22T12:10:59.788Z,95583.56
2022-11-22T12:16:29.822Z,95589.97
2022-11-22T12:21:37.351Z,95588.78
2022-11-22T12:26:39.978Z,95595.78
2022-11-22T12:31:57.090Z,95589.06
2022-11-22T12:37:09.006Z,95581.25
2022-11-22T12:42:20.066Z,95581.34
2022-11-22T12:47:32.208Z,95577.50
2022-11-22T12:53:00.409Z,95581.94
2022-11-22T12:58:20.480Z,95585.75
2022-11-22T13:03:30.284Z,95590.19
2022-11-22T13:08:52.879Z,95593.22
2022-11-22T13:14:06.468Z,95590.78
2022-11-22T13:19:12.991Z,95590.38
2022-11-22T13:24:42.302Z,95582.31
2022-11-22T13:29:45.328Z,95580.63
2022-11-22T13:35:01.426Z,95575.63
2022-11-22T13:40:15.315Z,95576.13
2022-11-22T13:45:24.644Z,95579.94
2022-11-22T13:50:41.861Z,95587.63
2022-11-22T13:55:43.563Z,95590.78
2022-11-22T14:00:45.471Z,95588.28
2022-11-22T14:05:53.555Z,95596.47
2022-11-22T14:10:55.214Z,95590.78
2022-11-22T14:16:13.270Z,95591.38
2022-11-22T14:21:20.980Z,95597.44
2022-11-22T14:26:41.541Z,95610.34
2022-11-22T14:31:55.173Z,95610.13
2022-11-22T14:37:29.125Z,95609.69
2022-11-22T14:42:36.927Z,95621.75
2022-11-22T14:47:46.316Z,95637.38
2022-11-22T14:52:48.139Z,95627.34
2022-11-22T14:57:59.797Z,95633.97
2022-11-22T15:03:27.147Z,95641.94
2022-11-22T15:09:15.565Z,95646.84
2022-11-22T15:14:37.176Z,95657.50
2022-11-22T15:57:55.181Z,95698.97
2022-11-22T16:03:01.459Z,95689.22
2022-11-22T16:08:05.794Z,95694.13
2022-11-22T16:13:35.993Z,95702.28
2022-11-22T16:18:39.161Z,95709.41
2022-11-22T16:23:42.138Z,95711.13
2022-11-22T16:28:44.211Z,95704.19
2022-11-22T16:33:46.225Z,95708.03
2022-11-22T16:38:48.348Z,95694.91
2022-11-22T16:43:53.820Z,95701.28
2022-11-22T16:48:56.196Z,95714.59
2022-11-22T16:54:00.423Z,95707.03
2022-11-22T16:59:02.216Z,95715.22
2022-11-22T17:04:04.845Z,95715.28
2022-11-22T17:09:06.605Z,95715.38
2022-11-22T17:14:16.367Z,95721.69
2022-11-22T17:19:51.612Z,95720.91
2022-11-22T17:24:39.610Z,95715.78
2022-11-22T17:29:50.359Z,95722.59
2022-11-22T17:34:52.663Z,95729.66
2022-11-22T17:39:54.328Z,95735.63
2022-11-22T17:44:56.154Z,95731.72
2022-11-22T17:49:58.021Z,95744.19
2022-11-22T17:55:05.215Z,95748.50
2022-11-22T18:00:10.284Z,95747.94
2022-11-22T18:05:12.945Z,95749.31
2022-11-22T18:10:14.611Z,95755.56
2022-11-22T18:15:16.384Z,95754.22
2022-11-22T18:20:18.108Z,95757.22
2022-11-22T18:25:20.113Z,95751.50
2022-11-22T18:30:22.047Z,95761.06
2022-11-22T18:35:24.356Z,95756.94
2022-11-22T18:40:26.320Z,95760.44
2022-11-22T18:45:32.533Z,95766.44
2022-11-22T18:50:34.497Z,95767.00
2022-11-22T18:55:36.236Z,95776.28
2022-11-22T19:00:37.907Z,95770.28
2022-11-22T19:05:40.109Z,95775.22
2022-11-22T19:10:43.844Z,95775.22
2022-11-22T19:15:45.577Z,95771.97
2022-11-22T19:20:55.034Z,95776.34
2022-11-22T19:25:57.529Z,95779.91
2022-11-22T19:31:10.121Z,95795.44
2022-11-22T19:36:14.675Z,95791.91
2022-11-22T19:41:21.590Z,95792.75
2022-11-22T19:46:24.552Z,95798.50
2022-11-22T19:51:28.914Z,95801.47
2022-11-22T19:56:33.608Z,95800.66
2022-11-22T20:01:35.687Z,95792.28
2022-11-22T20:06:37.691Z,95800.16
2022-11-22T20:11:41.252Z,95800.44
2022-11-22T20:16:43.125Z,95803.50
2022-11-22T20:21:45.969Z,95812.75
2022-11-22T20:26:47.579Z,95816.53
2022-11-22T20:31:49.291Z,95818.94
2022-11-22T20:36:50.997Z,95830.34
2022-11-22T20:42:11.843Z,95826.00
2022-11-22T20:47:15.047Z,95835.22
2022-11-22T20:52:16.713Z,95833.88
2022-11-22T20:57:18.619Z,95833.31
2022-11-22T21:02:20.404Z,95832.53
2022-11-22T21:07:22.557Z,95834.16
2022-11-22T21:12:25.088Z,95839.28
2022-11-22T21:17:50.133Z,95845.00
2022-11-22T21:22:54.293Z,95841.78
2022-11-22T21:27:56.081Z,95837.69
2022-11-22T21:32:58.130Z,95851.53
2022-11-22T21:37:59.795Z,95845.00
2022-11-22T21:43:01.474Z,95850.16
2022-11-22T21:48:04.577Z,95840.13
2022-11-22T21:53:06.604Z,95843.09
2022-11-22T21:58:08.390Z,95853.94
2022-11-22T22:03:10.082Z,95855.31
2022-11-22T22:08:11.810Z,95853.16
2022-11-22T22:13:13.533Z,95855.31
2022-11-22T22:18:15.595Z,95865.41
2022-11-22T22:23:17.211Z,95872.19
2022-11-22T22:28:18.904Z,95871.41
2022-11-22T22:33:20.836Z,95876.03
2022-11-22T22:38:23.001Z,95887.97
2022-11-22T22:43:25.736Z,95885.22
2022-11-22T22:48:29.149Z,95873.56
2022-11-22T22:53:31.105Z,95889.31
2022-11-22T22:58:33.585Z,95893.41
2022-11-22T23:03:36.115Z,95891.75
2022-11-22T23:08:38.933Z,95901.00
2022-11-22T23:13:41.607Z,95914.31
2022-11-22T23:18:44.613Z,95908.59
2022-11-22T23:23:46.270Z,95914.31
2022-11-22T23:28:48.796Z,95913.50
2022-11-22T23:33:50.806Z,95918.13
2022-11-22T23:38:52.515Z,95912.38
2022-11-22T23:43:56.295Z,95916.72
2022-11-22T23:49:00.850Z,95916.47
2022-11-22T23:54:06.448Z,95926.28
2022-11-22T23:59:09.416Z,95930.06
